Time;durP1;ratioP1;P1;durP2;ratioP2;P2;SDS_P1;SDS_P2;PMS_P1;PMS_P2;Temp;Humidity;BMP_temperature;BMP_pressure;BME280_temperature;BME280_humidity;BME280_pressure;Samples;Min_cycle;Max_cycle;Signal;HPM_P1;HPM_P2
2023/03/05 00:01:34;;;;;;;7.83;2.00;;;3.80;99.90;3.60;100452.00;;;;4942056;28;92543;-65
2023/03/05 00:04:05;;;;;;;2.13;1.10;;;3.80;99.90;3.50;100445.00;;;;4931774;28;92333;-64
2023/03/05 00:06:31;;;;;;;5.80;1.77;;;3.80;99.90;3.50;100443.00;;;;4927365;28;110439;-63
2023/03/05 00:08:57;;;;;;;2.43;1.37;;;4.50;99.90;3.50;100451.00;;;;4929544;28;99270;-63
2023/03/05 00:11:26;;;;;;;1.17;0.77;;;3.60;99.90;3.50;100441.00;;;;4930468;28;93911;-63
2023/03/05 00:13:52;;;;;;;4.73;1.40;;;3.70;99.90;3.50;100445.00;;;;4926171;28;93953;-63
2023/03/05 00:16:18;;;;;;;5.10;1.67;;;3.70;99.90;3.50;100437.00;;;;4930287;28;103664;-64
2023/03/05 00:18:45;;;;;;;1.97;1.23;;;3.40;99.90;3.50;100439.00;;;;4928359;28;92909;-63
2023/03/05 00:21:25;;;;;;;2.73;1.50;;;4.40;99.90;3.40;100435.00;;;;4933739;28;92796;-64
2023/03/05 00:23:52;;;;;;;1.07;0.70;;;3.60;99.90;3.40;100440.00;;;;4933988;28;94107;-65
2023/03/05 00:26:20;;;;;;;2.30;1.13;;;3.60;99.90;3.40;100433.00;;;;4933798;28;94114;-63
2023/03/05 00:28:50;;;;;;;3.70;1.07;;;3.60;99.90;3.40;100430.00;;;;4934595;28;92480;-63
2023/03/05 00:31:19;;;;;;;3.80;1.77;;;3.80;99.90;3.40;100424.00;;;;4934119;28;93561;-65
2023/03/05 00:33:45;;;;;;;1.37;1.17;;;3.60;99.90;3.40;100419.00;;;;4935356;28;93526;-65
2023/03/05 00:36:11;;;;;;;2.00;0.97;;;3.60;99.90;3.40;100413.00;;;;4932920;28;94112;-64
2023/03/05 00:38:37;;;;;;;4.50;1.33;;;3.60;99.90;3.30;100409.00;;;;4934508;28;93118;-64
2023/03/05 00:41:03;;;;;;;2.97;1.30;;;3.50;99.90;3.30;100407.00;;;;4930938;28;94402;-64
2023/03/05 00:43:29;;;;;;;5.27;1.13;;;3.70;99.90;3.30;100407.00;;;;4933006;28;93226;-63
2023/03/05 00:45:55;;;;;;;4.90;1.97;;;3.60;99.90;3.30;100410.00;;;;4930921;28;121649;-63
2023/03/05 00:48:24;;;;;;;2.00;1.17;;;3.50;99.90;3.30;100400.00;;;;4931715;28;110336;-64
2023/03/05 00:50:50;;;;;;;6.73;1.40;;;3.70;99.90;3.30;100404.00;;;;4935743;28;92827;-64
2023/03/05 00:53:16;;;;;;;2.50;1.40;;;3.50;99.90;3.30;100402.00;;;;4933032;28;114706;-63
2023/03/05 00:55:42;;;;;;;2.77;1.07;;;3.50;99.90;3.30;100400.00;;;;4936083;28;92936;-64
2023/03/05 00:58:07;;;;;;;2.37;1.20;;;3.50;99.90;3.30;100402.00;;;;4934113;28;98600;-64
2023/03/05 01:00:33;;;;;;;7.00;1.50;;;3.50;99.90;3.30;100389.00;;;;4935933;28;108948;-63
2023/03/05 01:03:05;;;;;;;3.67;1.33;;;4.40;99.90;3.30;100394.00;;;;4934658;28;124266;-65
2023/03/05 01:05:32;;;;;;;1.80;1.40;;;3.60;99.90;3.30;100384.00;;;;4915895;28;94593;-64
2023/03/05 01:07:58;;;;;;;1.83;1.43;;;3.40;99.90;3.20;100388.00;;;;4933282;28;98875;-64
2023/03/05 01:10:27;;;;;;;1.80;1.10;;;3.40;99.90;3.20;100371.00;;;;4932587;28;108348;-62
2023/03/05 01:12:55;;;;;;;4.57;1.17;;;3.50;99.90;3.20;100374.00;;;;4931180;28;92892;-62
2023/03/05 01:15:21;;;;;;;2.40;1.47;;;3.70;99.90;3.20;100376.00;;;;4932239;28;93020;-63
2023/03/05 01:17:46;;;;;;;3.90;1.57;;;3.40;99.90;3.20;100369.00;;;;4934222;28;92400;-63
2023/03/05 01:20:14;;;;;;;4.70;1.50;;;3.40;99.90;3.10;100361.00;;;;4931746;28;108192;-65
2023/03/05 01:22:40;;;;;;;5.07;0.93;;;3.50;99.90;3.10;100367.00;;;;4932553;28;110470;-65
2023/03/05 01:25:07;;;;;;;7.93;1.53;;;3.40;99.90;3.10;100356.00;;;;4933037;28;123590;-64
2023/03/05 01:27:33;;;;;;;2.23;1.30;;;3.30;99.90;3.10;100364.00;;;;4932191;28;101890;-64
2023/03/05 01:29:59;;;;;;;5.07;1.40;;;3.30;99.90;3.10;100355.00;;;;4934536;28;93240;-64
2023/03/05 01:32:25;;;;;;;2.60;0.93;;;4.10;99.90;3.10;100355.00;;;;4931216;28;122574;-63
2023/03/05 01:34:50;;;;;;;2.50;1.87;;;3.30;99.90;3.10;100355.00;;;;4930483;28;93027;-65
2023/03/05 01:37:16;;;;;;;5.07;1.57;;;3.40;99.90;3.10;100355.00;;;;4931739;28;111349;-64
2023/03/05 01:39:42;;;;;;;3.30;1.50;;;3.20;99.90;3.00;100349.00;;;;4929979;28;109843;-63
2023/03/05 01:42:08;;;;;;;3.67;1.67;;;3.20;99.90;3.00;100351.00;;;;4933780;28;122033;-65
2023/03/05 01:44:34;;;;;;;1.77;1.40;;;3.30;99.90;3.00;100351.00;;;;4917974;28;104881;-65
2023/03/05 01:47:00;;;;;;;3.30;1.70;;;3.20;99.90;3.00;100346.00;;;;4933048;28;96262;-64
2023/03/05 01:49:38;;;;;;;3.93;1.33;;;3.30;99.90;3.00;100342.00;;;;4931973;28;108182;-64
2023/03/05 01:52:12;;;;;;;4.73;1.37;;;3.30;99.90;3.00;100346.00;;;;4932882;28;93381;-65
2023/03/05 01:54:44;;;;;;;5.60;1.40;;;3.10;99.90;3.00;100344.00;;;;4917785;28;93754;-64
2023/03/05 01:57:15;;;;;;;4.47;1.10;;;3.20;99.90;3.00;100348.00;;;;4932595;28;93307;-63
2023/03/05 01:59:43;;;;;;;1.60;1.20;;;3.30;99.90;3.00;100336.00;;;;4932407;28;92999;-62
2023/03/05 02:02:09;;;;;;;6.70;1.90;;;3.20;99.90;3.00;100330.00;;;;4915650;28;94809;-64
2023/03/05 02:04:54;;;;;;;2.77;0.70;;;3.20;99.90;3.00;100326.00;;;;4931500;28;93906;-63
2023/03/05 02:07:21;;;;;;;2.10;1.10;;;3.30;99.90;3.00;100339.00;;;;4932910;28;91968;-64
2023/03/05 02:09:47;;;;;;;0.60;0.50;;;3.20;99.90;2.90;100324.00;;;;4932771;28;107768;-63
2023/03/05 02:12:13;;;;;;;4.50;1.40;;;4.10;99.90;3.00;100332.00;;;;4930746;28;118280;-64
2023/03/05 02:14:46;;;;;;;1.23;1.13;;;3.10;99.90;2.90;100330.00;;;;4914717;28;113560;-64
2023/03/05 02:17:12;;;;;;;9.40;1.07;;;3.10;99.90;2.90;100315.00;;;;4914993;28;93014;-64
2023/03/05 02:19:57;;;;;;;4.10;1.67;;;3.50;99.90;2.90;100311.00;;;;4934169;28;93056;-64
2023/03/05 02:22:23;;;;;;;3.23;1.23;;;3.10;99.90;2.90;100312.00;;;;4930187;28;93254;-65
2023/03/05 02:24:50;;;;;;;0.87;0.70;;;3.20;99.90;2.90;100311.00;;;;4932260;28;93298;-65
2023/03/05 02:27:17;;;;;;;0.70;0.70;;;3.00;99.90;2.80;100313.00;;;;4931628;28;92975;-64
2023/03/05 02:29:45;;;;;;;6.10;1.50;;;3.00;99.90;2.80;100301.00;;;;4933752;28;97636;-64
2023/03/05 02:32:12;;;;;;;1.77;1.33;;;3.00;99.90;2.80;100307.00;;;;4931932;28;102403;-63
2023/03/05 02:34:38;;;;;;;1.90;1.03;;;3.00;99.90;2.70;100303.00;;;;4933253;28;93240;-64
2023/03/05 02:37:07;;;;;;;1.53;1.07;;;3.00;99.90;2.70;100303.00;;;;4930899;28;109617;-63
2023/03/05 02:39:33;;;;;;;3.13;1.10;;;3.00;99.90;2.70;100296.00;;;;4930774;28;93925;-65
2023/03/05 02:41:59;;;;;;;1.23;0.70;;;3.00;99.90;2.70;100288.00;;;;4930863;28;122823;-63
2023/03/05 02:44:25;;;;;;;3.13;1.20;;;3.30;99.90;2.70;100294.00;;;;4930613;28;124645;-64
2023/03/05 02:46:51;;;;;;;5.37;1.10;;;2.90;99.90;2.70;100294.00;;;;4913654;28;93023;-63
2023/03/05 02:49:17;;;;;;;2.40;0.90;;;2.90;99.90;2.70;100288.00;;;;4933564;28;92951;-63
2023/03/05 02:51:43;;;;;;;1.83;0.83;;;2.90;99.90;2.60;100297.00;;;;4930693;28;100335;-64
2023/03/05 02:54:08;;;;;;;0.50;0.50;;;2.90;99.90;2.60;100293.00;;;;4931232;28;93113;-66
2023/03/05 02:56:34;;;;;;;1.37;0.83;;;2.80;99.90;2.60;100286.00;;;;4935237;28;92044;-64
2023/03/05 02:59:00;;;;;;;0.90;0.57;;;2.90;99.90;2.50;100287.00;;;;4931857;28;92998;-64
2023/03/05 03:01:27;;;;;;;5.60;1.63;;;3.60;99.90;2.50;100288.00;;;;4930854;28;124640;-63
2023/03/05 03:03:53;;;;;;;3.80;0.50;;;2.10;99.90;2.50;100286.00;;;;4930419;28;93855;-64
2023/03/05 03:06:19;;;;;;;2.10;1.20;;;2.70;99.90;2.50;100293.00;;;;4930573;28;92961;-65
2023/03/05 03:08:47;;;;;;;2.87;1.00;;;1.10;99.90;2.50;100290.00;;;;4930232;28;92985;-63
2023/03/05 03:11:13;;;;;;;0.73;0.67;;;2.70;99.90;2.50;100295.00;;;;4931205;28;123413;-64
2023/03/05 03:13:40;;;;;;;1.20;0.60;;;2.70;99.90;2.40;100291.00;;;;4927836;28;93554;-64
2023/03/05 03:16:11;;;;;;;3.63;1.40;;;2.60;99.90;2.40;100292.00;;;;4931371;28;93176;-66
2023/03/05 03:18:37;;;;;;;1.87;1.00;;;2.60;99.90;2.40;100291.00;;;;4929823;28;92819;-65
2023/03/05 03:21:04;;;;;;;2.77;0.90;;;2.60;99.90;2.40;100289.00;;;;4911538;28;92081;-64
2023/03/05 03:23:30;;;;;;;0.70;0.63;;;2.70;99.90;2.40;100288.00;;;;4931538;28;99815;-64
2023/03/05 03:25:57;;;;;;;4.77;1.40;;;2.60;99.90;2.30;100282.00;;;;4930566;28;93297;-64
2023/03/05 03:28:22;;;;;;;1.93;0.97;;;2.50;99.90;2.30;100281.00;;;;4929995;28;93933;-63
2023/03/05 03:30:48;;;;;;;1.33;0.47;;;2.50;99.90;2.30;100276.00;;;;4928692;28;122864;-63
2023/03/05 03:33:14;;;;;;;1.30;0.87;;;2.50;99.90;2.30;100277.00;;;;4931141;28;106415;-66
2023/03/05 03:35:40;;;;;;;0.63;0.60;;;3.50;99.90;2.30;100283.00;;;;4931699;28;93183;-63
2023/03/05 03:38:05;;;;;;;5.13;1.67;;;2.50;99.90;2.20;100281.00;;;;4929575;28;109185;-64
2023/03/05 03:40:31;;;;;;;1.13;0.97;;;2.50;99.90;2.20;100277.00;;;;4929691;28;122358;-64
2023/03/05 03:42:59;;;;;;;1.53;0.50;;;2.50;99.90;2.20;100284.00;;;;4929287;28;122239;-65
2023/03/05 03:45:25;;;;;;;5.13;1.00;;;2.40;99.90;2.20;100267.00;;;;4926445;28;108505;-63
2023/03/05 03:47:51;;;;;;;2.00;0.87;;;3.30;99.90;2.20;100269.00;;;;4929366;28;109327;-64
2023/03/05 03:50:17;;;;;;;1.90;0.80;;;2.40;99.90;2.20;100269.00;;;;4930286;28;122818;-63
2023/03/05 03:52:43;;;;;;;0.60;0.60;;;2.30;99.90;2.10;100270.00;;;;4928541;28;108613;-64
2023/03/05 03:55:10;;;;;;;3.57;1.10;;;2.40;99.90;2.10;100277.00;;;;4930683;28;110918;-64
2023/03/05 03:57:36;;;;;;;2.00;0.60;;;2.40;99.90;2.10;100272.00;;;;4932994;28;93072;-64
2023/03/05 04:00:05;;;;;;;0.97;0.70;;;1.70;99.90;2.10;100261.00;;;;4932028;28;122280;-63
2023/03/05 04:02:31;;;;;;;0.73;0.73;;;2.50;99.90;2.10;100254.00;;;;4935720;28;93642;-65
2023/03/05 04:04:57;;;;;;;3.50;0.60;;;2.30;99.90;2.10;100245.00;;;;4944585;28;98318;-64
2023/03/05 04:07:23;;;;;;;3.77;0.63;;;3.30;99.90;2.10;100251.00;;;;4949064;28;107459;-65
2023/03/05 04:09:49;;;;;;;1.73;1.10;;;3.20;99.90;2.10;100253.00;;;;4938197;28;121717;-64
2023/03/05 04:12:17;;;;;;;0.40;0.37;;;2.40;99.90;2.10;100250.00;;;;4933351;28;111197;-63
2023/03/05 04:14:47;;;;;;;0.73;0.50;;;2.40;99.90;2.10;100252.00;;;;4931564;28;92808;-64
2023/03/05 04:17:14;;;;;;;2.47;0.57;;;2.30;99.90;2.10;100241.00;;;;4928275;28;93835;-64
2023/03/05 04:19:40;;;;;;;0.70;0.47;;;2.50;99.90;2.10;100243.00;;;;4933315;28;93366;-63
2023/03/05 04:22:12;;;;;;;2.43;0.53;;;2.40;99.90;2.10;100249.00;;;;4929117;28;98369;-64
2023/03/05 04:24:37;;;;;;;1.90;0.47;;;2.40;99.90;2.10;100250.00;;;;4933772;28;92923;-63
2023/03/05 04:27:04;;;;;;;1.43;0.80;;;2.30;99.90;2.10;100246.00;;;;4933462;28;102849;-63
2023/03/05 04:29:30;;;;;;;0.70;0.50;;;2.30;99.90;2.10;100235.00;;;;4935937;28;115459;-64
2023/03/05 04:31:55;;;;;;;3.80;0.60;;;2.30;99.90;2.10;100229.00;;;;4930072;28;116017;-64
2023/03/05 04:34:21;;;;;;;4.13;0.70;;;2.30;99.90;2.10;100221.00;;;;4916293;28;109276;-64
2023/03/05 04:36:47;;;;;;;0.70;0.70;;;2.40;99.90;2.10;100227.00;;;;4931937;28;92918;-66
2023/03/05 04:39:12;;;;;;;4.47;0.67;;;2.30;99.90;2.10;100227.00;;;;4931131;28;122854;-64
2023/03/05 04:41:38;;;;;;;1.97;0.37;;;2.30;99.90;2.10;100230.00;;;;4932605;28;122234;-64
2023/03/05 04:44:04;;;;;;;0.50;0.37;;;2.30;99.90;2.10;100234.00;;;;4934013;28;110439;-64
2023/03/05 04:46:30;;;;;;;0.33;0.30;;;2.30;99.90;2.10;100225.00;;;;4932893;28;92862;-65
2023/03/05 04:48:56;;;;;;;1.43;0.47;;;2.40;99.90;2.10;100221.00;;;;4931749;28;123253;-65
2023/03/05 04:51:22;;;;;;;0.73;0.50;;;2.30;99.90;2.10;100214.00;;;;4935017;28;93181;-65
2023/03/05 04:53:48;;;;;;;0.83;0.60;;;2.30;99.90;2.10;100207.00;;;;4933466;28;108830;-66
2023/03/05 04:56:13;;;;;;;2.13;0.60;;;2.30;99.90;2.10;100215.00;;;;4933039;28;93174;-64
2023/03/05 04:58:39;;;;;;;0.30;0.30;;;2.30;99.90;2.10;100212.00;;;;4933344;28;120803;-65
2023/03/05 05:01:06;;;;;;;0.40;0.30;;;2.20;99.90;2.00;100202.00;;;;4931836;28;121810;-64
2023/03/05 05:03:32;;;;;;;1.60;0.50;;;2.40;99.90;2.00;100198.00;;;;4933183;28;93838;-64
2023/03/05 05:06:00;;;;;;;0.50;0.30;;;2.20;99.90;2.00;100203.00;;;;4933287;28;93738;-66
2023/03/05 05:08:26;;;;;;;0.73;0.50;;;2.30;99.90;2.00;100200.00;;;;4933261;28;107376;-65
2023/03/05 05:11:13;;;;;;;2.37;0.50;;;2.30;99.90;2.00;100209.00;;;;4932066;28;112241;-64
2023/03/05 05:13:39;;;;;;;1.23;0.80;;;2.30;99.90;2.00;100210.00;;;;4930719;28;95180;-65
2023/03/05 05:16:08;;;;;;;1.10;0.30;;;2.30;99.90;2.00;100214.00;;;;4929322;28;107310;-65
2023/03/05 05:18:34;;;;;;;1.13;0.43;;;2.20;99.90;2.00;100207.00;;;;4932663;28;93701;-65
2023/03/05 05:21:00;;;;;;;2.17;0.60;;;2.30;99.90;2.00;100210.00;;;;4932087;28;121886;-66
2023/03/05 05:23:26;;;;;;;1.93;0.97;;;2.50;99.90;2.00;100221.00;;;;4933415;28;110140;-66
2023/03/05 05:26:00;;;;;;;0.67;0.60;;;2.30;99.90;2.00;100214.00;;;;4930202;28;93066;-65
2023/03/05 05:28:27;;;;;;;0.33;0.33;;;2.20;99.90;1.90;100211.00;;;;4931590;28;108340;-66
2023/03/05 05:30:53;;;;;;;0.40;0.33;;;2.10;99.90;1.90;100210.00;;;;4931532;28;93853;-66
2023/03/05 05:33:21;;;;;;;1.33;0.67;;;2.20;99.90;1.90;100211.00;;;;4933339;28;92896;-66
2023/03/05 05:35:46;;;;;;;5.37;1.30;;;2.40;99.90;1.90;100206.00;;;;4934149;28;92712;-65
2023/03/05 05:38:12;;;;;;;1.83;0.90;;;2.20;99.90;1.90;100218.00;;;;4931048;28;123330;-64
2023/03/05 05:40:38;;;;;;;1.50;1.23;;;2.20;99.90;1.90;100209.00;;;;4932340;28;101823;-64
2023/03/05 05:43:04;;;;;;;1.03;0.83;;;2.70;99.90;1.90;100219.00;;;;4931333;28;92915;-65
2023/03/05 05:45:30;;;;;;;0.87;0.87;;;2.20;99.90;1.90;100211.00;;;;4931762;28;100991;-65
2023/03/05 05:47:56;;;;;;;0.57;0.57;;;2.30;99.90;1.90;100227.00;;;;4927669;28;122720;-64
2023/03/05 05:50:21;;;;;;;2.97;1.33;;;2.10;99.90;1.90;100225.00;;;;4932523;28;121805;-65
2023/03/05 05:52:47;;;;;;;1.30;0.60;;;2.20;99.90;1.90;100223.00;;;;4931974;28;101255;-64
2023/03/05 05:55:13;;;;;;;2.57;1.60;;;2.20;99.90;1.90;100223.00;;;;4930646;28;109497;-66
2023/03/05 05:57:38;;;;;;;1.23;1.13;;;2.20;99.90;1.90;100215.00;;;;4932484;28;122901;-65
2023/03/05 06:00:08;;;;;;;1.73;1.13;;;2.10;99.90;1.90;100206.00;;;;4914107;28;92985;-64
2023/03/05 06:02:40;;;;;;;2.03;1.83;;;2.20;99.90;1.90;100209.00;;;;4931514;28;92813;-66
2023/03/05 06:05:09;;;;;;;1.63;1.33;;;2.10;99.90;1.90;100225.00;;;;4933189;28;92967;-64
2023/03/05 06:07:35;;;;;;;2.20;1.47;;;2.20;99.90;1.90;100217.00;;;;4931233;28;101020;-65
2023/03/05 06:10:02;;;;;;;3.13;1.63;;;2.80;99.90;1.90;100228.00;;;;4932424;28;121512;-65
2023/03/05 06:12:28;;;;;;;6.63;1.67;;;2.20;99.90;1.90;100226.00;;;;4931863;28;92246;-64
2023/03/05 06:14:53;;;;;;;3.07;1.60;;;2.50;99.90;1.90;100209.00;;;;4933387;28;92831;-66
2023/03/05 06:17:19;;;;;;;0.80;0.80;;;2.10;99.90;1.90;100212.00;;;;4916493;28;109161;-64
2023/03/05 06:19:45;;;;;;;2.97;1.27;;;2.30;99.90;1.90;100232.00;;;;4931608;28;98889;-64
2023/03/05 06:22:11;;;;;;;3.07;1.37;;;2.20;99.90;2.00;100215.00;;;;4928883;28;110898;-66
2023/03/05 06:24:37;;;;;;;3.93;1.47;;;2.20;99.90;2.00;100229.00;;;;4931824;28;102965;-65
2023/03/05 06:27:04;;;;;;;2.33;1.30;;;2.90;99.90;2.00;100222.00;;;;4930744;28;122917;-65
2023/03/05 06:29:30;;;;;;;5.13;2.43;;;2.10;99.90;2.00;100218.00;;;;4931273;28;109196;-66
2023/03/05 06:31:56;;;;;;;1.60;1.40;;;3.20;99.90;2.00;100211.00;;;;4927611;28;92965;-64
2023/03/05 06:34:22;;;;;;;2.37;1.97;;;2.20;99.90;2.00;100211.00;;;;4929047;28;108897;-64
2023/03/05 06:36:47;;;;;;;1.90;1.53;;;2.20;99.90;2.00;100220.00;;;;4930687;28;101176;-64
2023/03/05 06:39:13;;;;;;;2.63;1.63;;;2.20;99.90;2.10;100217.00;;;;4926890;28;121336;-64
2023/03/05 06:41:39;;;;;;;2.70;1.60;;;2.20;99.90;2.10;100218.00;;;;4910173;28;93035;-65
2023/03/05 06:44:05;;;;;;;3.13;1.80;;;2.30;99.90;2.10;100208.00;;;;4926782;28;107962;-64
2023/03/05 06:46:34;;;;;;;2.97;1.47;;;2.30;99.90;2.10;100207.00;;;;4926179;28;122982;-64
2023/03/05 06:49:01;;;;;;;9.20;2.30;;;2.40;99.90;2.20;100211.00;;;;4925202;28;93196;-65
2023/03/05 06:51:33;;;;;;;3.33;1.90;;;2.40;99.90;2.20;100214.00;;;;4927829;28;92831;-65
2023/03/05 06:54:03;;;;;;;2.13;1.60;;;2.40;99.90;2.30;100207.00;;;;4925474;28;92937;-65
2023/03/05 06:56:29;;;;;;;3.13;1.47;;;2.40;99.90;2.30;100216.00;;;;4927551;28;110596;-64
2023/03/05 06:58:54;;;;;;;4.33;2.07;;;2.50;99.90;2.30;100201.00;;;;4926877;28;122822;-66
2023/03/05 07:01:22;;;;;;;1.40;0.80;;;2.50;99.90;2.30;100220.00;;;;4926417;28;109694;-64
2023/03/05 07:03:50;;;;;;;2.10;1.43;;;2.60;99.90;2.30;100211.00;;;;4927250;28;92812;-66
2023/03/05 07:06:17;;;;;;;1.77;1.17;;;2.60;99.90;2.30;100211.00;;;;4926912;28;93123;-64
2023/03/05 07:08:46;;;;;;;4.33;1.37;;;2.60;99.90;2.30;100214.00;;;;4926808;28;111103;-63
2023/03/05 07:11:18;;;;;;;2.20;1.37;;;2.50;99.90;2.30;100217.00;;;;4927299;28;92668;-65
2023/03/05 07:13:47;;;;;;;4.17;1.30;;;2.50;99.90;2.30;100218.00;;;;4926989;28;92814;-63
2023/03/05 07:16:21;;;;;;;4.00;1.67;;;3.20;99.90;2.20;100219.00;;;;4928183;28;93655;-63
2023/03/05 07:18:46;;;;;;;3.30;1.33;;;2.50;99.90;2.20;100217.00;;;;4925944;28;92968;-64
2023/03/05 07:21:19;;;;;;;3.87;1.13;;;2.40;99.90;2.10;100218.00;;;;4927525;28;92896;-63
2023/03/05 07:23:45;;;;;;;2.83;1.23;;;3.00;99.90;2.10;100215.00;;;;4930467;28;93115;-65
2023/03/05 07:26:11;;;;;;;3.07;1.77;;;3.30;99.90;2.00;100217.00;;;;4928486;28;110595;-64
2023/03/05 07:28:37;;;;;;;1.57;1.30;;;2.20;99.90;2.00;100222.00;;;;4928129;28;121765;-66
2023/03/05 07:31:11;;;;;;;1.90;1.00;;;2.30;99.90;2.00;100205.00;;;;4926902;28;111089;-65
2023/03/05 07:33:37;;;;;;;9.10;1.67;;;3.20;99.90;1.90;100207.00;;;;4927889;28;93983;-64
2023/03/05 07:36:06;;;;;;;2.47;1.67;;;2.30;99.90;1.90;100209.00;;;;4926298;28;124353;-64
2023/03/05 07:38:32;;;;;;;5.10;2.00;;;2.30;99.90;1.90;100207.00;;;;4928634;28;93278;-66
2023/03/05 07:41:06;;;;;;;2.30;1.47;;;2.20;99.90;1.90;100205.00;;;;4929815;28;92996;-64
2023/03/05 07:43:32;;;;;;;0.70;0.70;;;2.20;99.90;1.90;100205.00;;;;4928847;28;92866;-65
2023/03/05 07:45:58;;;;;;;2.67;1.80;;;2.10;99.90;1.90;100194.00;;;;4926830;28;94031;-64
2023/03/05 07:48:24;;;;;;;2.33;1.57;;;2.20;99.90;2.00;100193.00;;;;4927506;28;121653;-63
2023/03/05 07:50:59;;;;;;;1.83;1.60;;;2.20;99.90;2.00;100193.00;;;;4928583;28;92429;-64
2023/03/05 07:53:24;;;;;;;6.80;1.37;;;2.20;99.90;2.00;100189.00;;;;4928465;28;95055;-65
2023/03/05 07:55:50;;;;;;;3.27;1.20;;;2.30;99.90;2.00;100187.00;;;;4928626;28;121955;-64
2023/03/05 07:58:17;;;;;;;3.93;1.33;;;2.20;99.90;2.00;100189.00;;;;4925767;28;121928;-67
2023/03/05 08:00:43;;;;;;;3.13;1.43;;;3.30;99.90;2.10;100185.00;;;;4928321;28;92848;-66
2023/03/05 08:03:08;;;;;;;1.90;1.40;;;2.30;99.90;2.10;100180.00;;;;4936600;28;108109;-65
2023/03/05 08:05:38;;;;;;;0.63;0.63;;;2.30;99.90;2.20;100184.00;;;;4944898;28;123395;-65
2023/03/05 08:08:05;;;;;;;1.27;0.93;;;2.30;99.90;2.20;100181.00;;;;4937355;28;93081;-66
2023/03/05 08:10:30;;;;;;;2.07;1.37;;;2.40;99.90;2.20;100180.00;;;;4929318;28;93215;-67
2023/03/05 08:12:56;;;;;;;2.10;1.37;;;2.40;99.90;2.20;100179.00;;;;4925828;28;109378;-66
2023/03/05 08:15:22;;;;;;;0.97;0.93;;;2.50;99.90;2.20;100185.00;;;;4928297;28;122069;-67
2023/03/05 08:17:47;;;;;;;3.57;1.13;;;2.50;99.90;2.20;100169.00;;;;4926086;28;109419;-67
2023/03/05 08:20:13;;;;;;;1.80;0.93;;;2.40;99.90;2.30;100165.00;;;;4927717;28;93023;-65
2023/03/05 08:22:39;;;;;;;3.13;1.43;;;2.50;99.90;2.30;100168.00;;;;4923944;28;109264;-65
2023/03/05 08:25:06;;;;;;;4.90;1.87;;;2.50;99.90;2.30;100158.00;;;;4923909;28;122269;-65
2023/03/05 08:27:31;;;;;;;5.63;2.90;;;2.40;99.90;2.30;100177.00;;;;4925940;28;93040;-67
2023/03/05 08:29:59;;;;;;;1.43;1.33;;;2.60;99.90;2.30;100164.00;;;;4924422;28;93252;-66
2023/03/05 08:32:25;;;;;;;2.83;1.33;;;2.50;99.90;2.30;100153.00;;;;4925973;28;100248;-66
2023/03/05 08:34:56;;;;;;;2.63;1.63;;;2.80;99.90;2.30;100157.00;;;;4925635;28;123377;-67
2023/03/05 08:37:21;;;;;;;2.13;1.73;;;2.60;99.90;2.40;100161.00;;;;4928566;28;93801;-65
2023/03/05 08:39:47;;;;;;;2.83;1.47;;;2.60;99.90;2.40;100154.00;;;;4924067;28;109336;-66
2023/03/05 08:42:12;;;;;;;2.73;1.60;;;2.80;99.90;2.40;100146.00;;;;4909759;28;110023;-66
2023/03/05 08:44:38;;;;;;;2.47;1.10;;;2.60;99.90;2.40;100154.00;;;;4927808;28;122568;-66
2023/03/05 08:47:04;;;;;;;3.43;1.47;;;2.70;99.90;2.50;100176.00;;;;4927048;28;119838;-65
2023/03/05 08:49:29;;;;;;;3.33;1.00;;;2.70;99.90;2.50;100161.00;;;;4929948;28;95208;-66
2023/03/05 08:51:55;;;;;;;1.13;0.63;;;2.70;99.90;2.50;100161.00;;;;4929180;28;108791;-66
2023/03/05 08:54:21;;;;;;;2.33;0.37;;;2.70;99.90;2.40;100179.00;;;;4928736;28;122497;-67
2023/03/05 08:56:48;;;;;;;1.77;0.70;;;2.60;99.90;2.20;100174.00;;;;4926115;28;121976;-68
2023/03/05 08:59:13;;;;;;;0.37;0.37;;;2.60;99.90;2.00;100177.00;;;;4928842;28;93154;-67
2023/03/05 09:01:39;;;;;;;0.53;0.53;;;2.80;99.90;1.90;100182.00;;;;4927457;28;108678;-68
2023/03/05 09:04:11;;;;;;;0.77;0.77;;;2.20;99.90;1.70;100171.00;;;;4926175;28;93553;-67
2023/03/05 09:06:39;;;;;;;0.20;0.20;;;2.10;99.90;1.50;100174.00;;;;4926741;28;122389;-68
2023/03/05 09:09:06;;;;;;;0.50;0.20;;;1.90;99.90;1.40;100169.00;;;;4928673;28;93054;-71
2023/03/05 09:11:34;;;;;;;1.10;0.50;;;1.80;99.90;1.30;100158.00;;;;4911742;28;93999;-69
2023/03/05 09:14:02;;;;;;;0.83;0.43;;;1.70;99.90;1.20;100166.00;;;;4928417;28;93472;-67
2023/03/05 09:16:28;;;;;;;0.67;0.30;;;1.60;99.90;1.20;100165.00;;;;4927060;28;93600;-70
2023/03/05 09:18:53;;;;;;;1.70;0.77;;;1.50;99.90;1.10;100170.00;;;;4927948;28;93128;-69
2023/03/05 09:21:20;;;;;;;0.97;0.30;;;1.50;99.90;1.10;100155.00;;;;4927228;28;93023;-68
2023/03/05 09:23:46;;;;;;;1.60;0.30;;;1.40;99.90;1.10;100150.00;;;;4926247;28;120946;-67
2023/03/05 09:26:14;;;;;;;0.30;0.30;;;1.50;99.90;1.10;100157.00;;;;4926163;28;122352;-70
2023/03/05 09:28:41;;;;;;;3.80;0.77;;;1.30;99.90;1.10;100163.00;;;;4931643;28;92088;-73
2023/03/05 09:31:08;;;;;;;0.10;0.10;;;2.40;99.90;1.10;100154.00;;;;4929630;28;100048;-72
2023/03/05 09:33:35;;;;;;;0.37;0.37;;;1.30;99.90;1.10;100159.00;;;;4928347;28;94430;-68
2023/03/05 09:36:03;;;;;;;2.67;2.00;;;1.30;99.90;1.10;100151.00;;;;4928377;28;93858;-67
2023/03/05 09:38:29;;;;;;;1.23;0.90;;;1.30;99.90;1.10;100150.00;;;;4930192;28;92929;-69
2023/03/05 09:41:06;;;;;;;0.67;0.57;;;1.40;99.90;1.10;100148.00;;;;4928608;28;93379;-70
2023/03/05 09:44:22;;;;;;;0.40;0.40;;;1.30;99.90;1.10;100155.00;;;;4928854;28;93280;-68
2023/03/05 09:46:57;;;;;;;0.10;0.10;;;1.50;99.90;1.10;100149.00;;;;4928655;28;93198;-68
2023/03/05 09:49:55;;;;;;;0.50;0.50;;;1.40;99.90;1.10;100149.00;;;;4930485;28;92794;-66
2023/03/05 09:52:28;;;;;;;0.67;0.40;;;2.40;99.90;1.10;100143.00;;;;4925834;28;100866;-67
2023/03/05 09:54:56;;;;;;;0.20;0.13;;;1.40;99.90;1.10;100141.00;;;;4924679;28;92785;-65
2023/03/05 09:57:31;;;;;;;0.50;0.50;;;1.40;99.90;1.20;100150.00;;;;4930570;28;93417;-67
2023/03/05 10:00:07;;;;;;;0.87;0.57;;;1.40;99.90;1.20;100143.00;;;;4911788;28;92750;-68
2023/03/05 10:02:40;;;;;;;0.60;0.60;;;1.50;99.90;1.20;100147.00;;;;4911046;28;94125;-67
2023/03/05 10:05:19;;;;;;;0.37;0.30;;;1.50;99.90;1.20;100143.00;;;;4926933;28;115200;-67
2023/03/05 10:07:58;;;;;;;0.30;0.30;;;1.50;99.90;1.20;100136.00;;;;4910866;28;93373;-68
2023/03/05 10:10:40;;;;;;;1.77;0.90;;;1.50;99.90;1.30;100132.00;;;;4927557;28;106599;-68
2023/03/05 10:13:22;;;;;;;0.87;0.33;;;1.50;99.90;1.40;100126.00;;;;4908868;28;94942;-72
2023/03/05 10:16:24;;;;;;;0.57;0.40;;;1.70;99.90;1.60;100122.00;;;;4896068;28;93066;-72
2023/03/05 10:19:15;;;;;;;0.30;0.30;;;1.70;99.90;2.00;100126.00;;;;4871397;28;93658;-72
2023/03/05 10:22:19;;;;;;;0.77;0.57;;;2.10;99.90;2.70;100115.00;;;;4925507;28;99811;-71
2023/03/05 10:25:12;;;;;;;0.47;0.40;;;2.70;99.90;3.20;100115.00;;;;4928551;28;92891;-69
2023/03/05 10:28:16;;;;;;;0.53;0.53;;;3.10;99.90;3.50;100119.00;;;;4926760;28;106640;-69
2023/03/05 10:30:54;;;;;;;0.60;0.33;;;3.50;99.90;3.70;100108.00;;;;4909470;28;93983;-70
2023/03/05 10:33:46;;;;;;;1.27;0.57;;;3.80;99.90;3.80;100099.00;;;;4928691;28;93297;-70
2023/03/05 10:36:44;;;;;;;0.43;0.40;;;4.00;99.90;4.00;100110.00;;;;4927790;28;92806;-70
2023/03/05 10:39:38;;;;;;;0.53;0.30;;;4.10;99.90;4.20;100108.00;;;;4921284;28;94607;-69
2023/03/05 10:42:26;;;;;;;0.37;0.37;;;4.40;99.90;4.30;100104.00;;;;4925816;28;93566;-68
2023/03/05 10:44:57;;;;;;;0.47;0.40;;;4.50;99.90;4.40;100102.00;;;;4911612;28;101413;-70
2023/03/05 10:47:46;;;;;;;0.33;0.30;;;4.60;99.90;4.40;100100.00;;;;4927885;28;99997;-69
2023/03/05 10:50:22;;;;;;;0.77;0.60;;;4.60;99.90;4.30;100094.00;;;;4925695;28;115448;-66
2023/03/05 10:53:05;;;;;;;2.27;0.87;;;4.60;99.90;4.20;100091.00;;;;4927133;28;93133;-67
2023/03/05 10:55:31;;;;;;;1.80;0.87;;;4.50;99.90;4.10;100081.00;;;;4927748;28;92813;-67
2023/03/05 10:57:57;;;;;;;0.53;0.53;;;4.30;99.90;4.00;100077.00;;;;4926602;28;94329;-67
2023/03/05 11:00:31;;;;;;;3.10;0.80;;;4.30;99.90;3.90;100065.00;;;;4924829;28;120795;-67
2023/03/05 11:03:08;;;;;;;1.17;0.80;;;4.20;99.90;3.80;100067.00;;;;4925102;28;93102;-66
2023/03/05 11:05:46;;;;;;;1.33;1.03;;;4.10;99.90;3.70;100066.00;;;;4928631;28;92989;-66
2023/03/05 11:08:24;;;;;;;1.50;0.53;;;4.00;99.90;3.70;100082.00;;;;4927489;28;92878;-67